createdAt,value
2019-03-26T00:01:54.476Z,91.62
2019-03-26T00:04:22.868Z,91.75
2019-03-26T00:06:51.268Z,91.26
2019-03-26T00:09:19.659Z,91.50
2019-03-26T00:11:48.318Z,91.35
2019-03-26T00:14:16.703Z,90.60
2019-03-26T00:16:45.100Z,89.79
2019-03-26T00:19:13.589Z,90.43
2019-03-26T00:21:41.982Z,91.33
2019-03-26T00:24:10.533Z,91.13
2019-03-26T00:26:38.936Z,91.15
2019-03-26T00:29:07.344Z,92.09
2019-03-26T00:31:35.738Z,92.04
2019-03-26T00:34:04.193Z,92.49
2019-03-26T00:36:32.608Z,93.69
2019-03-26T00:39:01.093Z,95.05
2019-03-26T00:41:29.490Z,95.53
2019-03-26T00:43:57.882Z,96.52
2019-03-26T00:46:26.305Z,96.75
2019-03-26T00:48:54.704Z,97.28
2019-03-26T00:51:23.125Z,96.54
2019-03-26T00:53:51.521Z,95.05
2019-03-26T00:56:19.929Z,94.63
2019-03-26T00:58:48.323Z,94.36
2019-03-26T01:01:17.058Z,94.18
2019-03-26T01:03:45.458Z,93.61
2019-03-26T01:06:13.867Z,94.70
2019-03-26T01:08:42.266Z,94.77
2019-03-26T01:11:10.853Z,94.62
2019-03-26T01:13:39.264Z,94.92
2019-03-26T01:16:07.711Z,94.86
2019-03-26T01:18:36.101Z,95.14
2019-03-26T01:21:04.574Z,94.91
2019-03-26T01:23:32.969Z,95.19
2019-03-26T01:26:01.388Z,95.09
2019-03-26T01:28:29.793Z,94.59
2019-03-26T01:30:58.184Z,94.24
2019-03-26T01:33:26.597Z,94.49
2019-03-26T01:35:54.985Z,93.91
2019-03-26T01:38:23.408Z,94.05
2019-03-26T01:40:51.918Z,94.17
2019-03-26T01:43:20.335Z,94.10
2019-03-26T01:45:48.733Z,93.81
2019-03-26T01:48:17.146Z,93.74
2019-03-26T01:50:45.536Z,93.12
2019-03-26T01:53:13.972Z,93.43
2019-03-26T01:55:42.357Z,93.23
2019-03-26T01:58:10.780Z,93.25
2019-03-26T02:00:39.169Z,93.67
2019-03-26T02:03:07.584Z,93.23
2019-03-26T02:05:35.980Z,93.72
2019-03-26T02:08:04.501Z,93.71
2019-03-26T02:10:32.902Z,93.48
2019-03-26T02:13:01.404Z,94.06
2019-03-26T02:15:31.132Z,94.03
2019-03-26T02:18:00.246Z,94.17
2019-03-26T02:20:28.780Z,94.07
2019-03-26T02:22:57.386Z,93.85
2019-03-26T02:25:25.826Z,94.44
2019-03-26T02:27:54.305Z,95.05
2019-03-26T02:30:22.724Z,95.03
2019-03-26T02:32:51.166Z,95.56
2019-03-26T02:35:19.702Z,95.86
2019-03-26T02:37:48.098Z,95.95
2019-03-26T02:40:16.479Z,95.83
2019-03-26T02:42:44.888Z,95.80
2019-03-26T02:45:13.428Z,95.80
2019-03-26T02:47:41.828Z,95.31
2019-03-26T02:50:10.749Z,94.50
2019-03-26T02:52:39.140Z,93.66
2019-03-26T02:55:07.846Z,93.54
2019-03-26T02:57:36.407Z,93.42
2019-03-26T03:00:07.174Z,93.01
2019-03-26T03:02:35.635Z,92.87
2019-03-26T03:05:04.337Z,92.46
2019-03-26T03:07:32.740Z,93.34
2019-03-26T03:10:01.203Z,93.58
2019-03-26T03:12:29.610Z,93.93
2019-03-26T03:14:58.027Z,94.24
2019-03-26T03:17:26.418Z,94.14
2019-03-26T03:19:54.812Z,93.87
2019-03-26T03:22:23.294Z,93.78
2019-03-26T03:24:51.759Z,93.93
2019-03-26T03:27:20.150Z,93.67
2019-03-26T03:29:48.555Z,93.48
2019-03-26T03:32:16.969Z,92.89
2019-03-26T03:34:45.377Z,91.80
2019-03-26T03:37:13.789Z,91.88
2019-03-26T03:39:42.186Z,91.39
2019-03-26T03:42:10.737Z,91.55
2019-03-26T03:44:39.206Z,91.90
2019-03-26T03:47:08.149Z,92.56
2019-03-26T03:49:37.092Z,93.06
2019-03-26T03:52:05.968Z,92.83
2019-03-26T03:54:36.511Z,93.05
2019-03-26T03:57:06.139Z,93.65
2019-03-26T03:59:34.817Z,95.33
2019-03-26T04:02:03.330Z,96.16
2019-03-26T04:04:31.776Z,97.56
2019-03-26T04:07:00.253Z,98.66
2019-03-26T04:09:28.661Z,99.01
2019-03-26T04:11:57.060Z,98.93
2019-03-26T04:14:25.454Z,98.25
2019-03-26T04:16:53.849Z,99.16
2019-03-26T04:19:22.280Z,99.48
2019-03-26T04:21:50.681Z,99.71
2019-03-26T04:24:19.140Z,100.00
2019-03-26T04:28:35.014Z,99.64
2019-03-26T04:31:03.500Z,99.74
2019-03-26T04:33:31.906Z,99.55
2019-03-26T04:36:00.295Z,98.93
2019-03-26T04:38:28.715Z,98.91
2019-03-26T04:40:57.227Z,98.56
2019-03-26T04:43:25.691Z,97.80
2019-03-26T04:45:54.065Z,97.55
2019-03-26T04:48:22.488Z,97.87
2019-03-26T04:50:50.895Z,98.11
2019-03-26T04:53:19.323Z,97.77
2019-03-26T04:55:47.717Z,97.75
2019-03-26T04:58:16.121Z,96.91
2019-03-26T05:00:44.587Z,96.11
2019-03-26T05:03:13.056Z,95.61
2019-03-26T05:05:41.459Z,95.00
2019-03-26T05:08:09.859Z,95.00
2019-03-26T05:10:38.262Z,94.80
2019-03-26T05:13:06.667Z,94.20
2019-03-26T05:15:35.093Z,93.93
2019-03-26T05:18:03.549Z,93.68
2019-03-26T05:20:31.959Z,95.54
2019-03-26T05:23:00.368Z,95.35
2019-03-26T05:25:28.847Z,96.43
2019-03-26T05:27:57.253Z,96.75
2019-03-26T05:30:25.765Z,97.42
2019-03-26T05:32:54.240Z,98.14
2019-03-26T05:35:22.722Z,97.83
2019-03-26T05:37:51.216Z,97.57
2019-03-26T05:40:19.602Z,96.43
2019-03-26T05:42:48.076Z,100.00
2019-03-26T05:45:16.488Z,100.00
2019-03-26T05:47:44.891Z,100.00
2019-03-26T05:50:15.212Z,99.92
2019-03-26T05:52:43.644Z,100.00
2019-03-26T05:55:12.317Z,99.04
2019-03-26T05:57:40.806Z,98.50
2019-03-26T06:00:13.806Z,100.00
2019-03-26T06:02:42.290Z,100.00
2019-03-26T06:05:13.983Z,95.09
2019-03-26T06:07:42.377Z,97.15
2019-03-26T06:10:11.224Z,96.34
2019-03-26T06:12:39.704Z,97.53
2019-03-26T06:15:10.357Z,98.75
2019-03-26T06:17:38.842Z,95.82
2019-03-26T06:20:08.183Z,96.10
2019-03-26T06:22:36.578Z,93.51
2019-03-26T06:25:07.650Z,92.59
2019-03-26T06:27:36.108Z,93.38
2019-03-26T06:30:07.186Z,92.38
2019-03-26T06:32:35.600Z,92.13
2019-03-26T06:35:08.750Z,92.47
2019-03-26T06:37:37.339Z,91.99
2019-03-26T06:40:09.784Z,91.25
2019-03-26T06:42:38.272Z,90.59
2019-03-26T06:45:08.412Z,90.62
2019-03-26T06:47:36.921Z,90.51
2019-03-26T06:50:10.247Z,88.43
2019-03-26T06:52:39.060Z,84.10
2019-03-26T06:55:08.215Z,83.17
2019-03-26T06:57:37.061Z,82.76
2019-03-26T07:00:11.196Z,77.52
2019-03-26T07:02:39.670Z,71.25
2019-03-26T07:05:08.805Z,59.74
2019-03-26T07:07:37.201Z,59.74
2019-03-26T07:10:07.943Z,55.68
2019-03-26T07:12:36.447Z,53.77
2019-03-26T07:15:07.651Z,50.21
2019-03-26T07:17:36.142Z,47.52
2019-03-26T07:20:07.390Z,45.82
2019-03-26T07:22:35.815Z,44.15
2019-03-26T07:25:06.511Z,43.97
2019-03-26T07:27:34.922Z,42.52
2019-03-26T07:30:03.978Z,40.23
2019-03-26T07:32:32.388Z,39.52
2019-03-26T07:35:00.827Z,40.57
2019-03-26T07:37:29.234Z,38.84
2019-03-26T07:39:57.830Z,36.84
2019-03-26T07:42:26.238Z,36.79
2019-03-26T07:44:54.743Z,35.04
2019-03-26T07:47:23.217Z,35.66
2019-03-26T07:49:51.742Z,33.56
2019-03-26T07:52:20.153Z,32.63
2019-03-26T07:54:48.556Z,33.50
2019-03-26T07:57:17.036Z,31.85
2019-03-26T07:59:45.474Z,31.68
2019-03-26T08:02:13.969Z,30.91
2019-03-26T08:04:42.365Z,30.65
2019-03-26T08:07:10.773Z,30.50
2019-03-26T08:09:39.167Z,32.00
2019-03-26T08:12:07.578Z,30.39
2019-03-26T08:14:36.104Z,29.60
2019-03-26T08:17:04.624Z,30.22
2019-03-26T08:19:33.085Z,33.10
2019-03-26T08:22:01.517Z,33.91
2019-03-26T08:24:32.047Z,36.18
2019-03-26T08:27:00.448Z,38.30
2019-03-26T08:29:28.853Z,40.10
2019-03-26T08:31:57.304Z,43.32
2019-03-26T08:34:25.783Z,45.85
2019-03-26T08:36:54.194Z,45.54
2019-03-26T08:39:22.623Z,47.18
2019-03-26T08:41:51.031Z,46.19
2019-03-26T08:44:19.449Z,45.69
2019-03-26T08:46:47.883Z,42.89
2019-03-26T08:49:16.283Z,38.52
2019-03-26T08:51:44.743Z,37.08
2019-03-26T08:54:13.158Z,37.83
2019-03-26T08:56:41.566Z,38.50
2019-03-26T08:59:10.030Z,39.99
2019-03-26T09:01:38.568Z,41.84
2019-03-26T09:04:07.047Z,43.51
2019-03-26T09:06:35.698Z,45.03
2019-03-26T09:09:06.549Z,46.71
2019-03-26T09:11:34.943Z,46.20
2019-03-26T09:14:03.508Z,44.32
2019-03-26T09:16:32.070Z,44.04
2019-03-26T09:19:00.517Z,44.10
2019-03-26T09:21:29.008Z,40.65
2019-03-26T09:23:57.425Z,40.22
2019-03-26T09:26:25.821Z,39.63
2019-03-26T09:28:54.235Z,42.23
2019-03-26T09:31:22.795Z,43.79
2019-03-26T09:33:51.203Z,44.29
2019-03-26T09:36:19.693Z,47.27
2019-03-26T09:38:48.176Z,48.58
2019-03-26T09:41:16.579Z,48.02
2019-03-26T09:43:44.985Z,49.24
2019-03-26T09:46:13.456Z,50.28
2019-03-26T09:48:41.928Z,50.46
2019-03-26T09:51:10.942Z,50.23
2019-03-26T09:53:39.500Z,50.63
2019-03-26T09:56:07.913Z,50.14
2019-03-26T09:58:36.300Z,49.66
2019-03-26T10:01:04.893Z,49.68
2019-03-26T10:03:33.356Z,48.81
2019-03-26T10:06:01.870Z,48.07
2019-03-26T10:08:30.361Z,47.19
2019-03-26T10:10:58.836Z,45.77
2019-03-26T10:13:27.240Z,45.74
2019-03-26T10:15:55.672Z,44.61
2019-03-26T10:18:24.178Z,43.36
2019-03-26T10:20:52.613Z,43.51
2019-03-26T10:23:21.016Z,45.18
2019-03-26T10:25:49.513Z,44.86
2019-03-26T10:28:17.914Z,45.11
2019-03-26T10:30:46.410Z,44.90
2019-03-26T10:33:14.794Z,44.56
2019-03-26T10:35:43.291Z,45.91
2019-03-26T10:38:11.719Z,47.40
2019-03-26T10:40:40.390Z,46.40
2019-03-26T10:43:08.935Z,44.29
2019-03-26T10:45:37.405Z,43.14
2019-03-26T10:48:05.968Z,41.91
2019-03-26T10:50:34.375Z,41.79
2019-03-26T10:53:02.830Z,41.74
2019-03-26T10:55:31.368Z,41.66
2019-03-26T10:57:59.807Z,43.07
2019-03-26T11:00:28.278Z,43.07
2019-03-26T11:02:56.739Z,43.23
2019-03-26T11:05:25.520Z,43.53
2019-03-26T11:07:53.991Z,43.75
2019-03-26T11:10:22.401Z,43.76
2019-03-26T11:12:50.819Z,44.12
2019-03-26T11:15:38.559Z,44.90
2019-03-26T11:18:07.237Z,46.04
2019-03-26T11:20:35.676Z,46.14
2019-03-26T11:23:04.164Z,46.66
2019-03-26T11:25:32.659Z,47.00
2019-03-26T11:28:01.098Z,47.93
2019-03-26T11:30:29.659Z,47.95
2019-03-26T11:32:58.180Z,48.76
2019-03-26T11:35:26.663Z,49.33
2019-03-26T11:37:55.140Z,49.66
2019-03-26T11:40:23.605Z,49.91
2019-03-26T11:42:52.064Z,49.86
2019-03-26T11:45:20.711Z,51.09
2019-03-26T11:47:50.664Z,51.66
2019-03-26T11:50:19.304Z,51.23
2019-03-26T11:52:47.833Z,52.14
2019-03-26T11:55:16.466Z,52.54
2019-03-26T11:57:45.013Z,53.83
2019-03-26T12:00:17.071Z,53.83
2019-03-26T12:02:45.488Z,53.62
2019-03-26T12:05:14.033Z,53.49
2019-03-26T12:07:43.059Z,53.49
2019-03-26T12:10:13.225Z,53.42
2019-03-26T12:12:41.719Z,53.42
2019-03-26T12:15:11.741Z,54.87
2019-03-26T12:17:40.140Z,55.77
2019-03-26T12:20:08.754Z,55.83
2019-03-26T12:22:37.265Z,56.14
2019-03-26T12:25:07.109Z,56.80
2019-03-26T12:33:32.422Z,57.80
2019-03-26T12:42:35.774Z,54.70
2019-03-26T12:45:07.205Z,54.91
2019-03-26T12:47:35.770Z,53.02
2019-03-26T12:50:06.753Z,52.16
2019-03-26T12:52:35.158Z,51.98
2019-03-26T12:55:03.785Z,50.39
2019-03-26T12:57:32.142Z,49.25
2019-03-26T13:00:00.578Z,49.25
2019-03-26T13:02:29.148Z,48.15
2019-03-26T13:04:58.597Z,45.47
2019-03-26T13:07:27.070Z,43.17
2019-03-26T13:09:55.560Z,37.94
2019-03-26T13:12:23.954Z,35.05
2019-03-26T13:14:52.369Z,32.00
2019-03-26T13:17:20.825Z,32.39
2019-03-26T13:22:17.475Z,38.99
2019-03-26T13:24:45.866Z,40.37
2019-03-26T13:27:14.351Z,40.84
2019-03-26T13:29:42.796Z,39.43
2019-03-26T13:32:13.009Z,38.08
2019-03-26T13:34:41.362Z,35.12
2019-03-26T13:37:09.778Z,33.62
2019-03-26T13:39:38.227Z,34.62
2019-03-26T13:42:06.703Z,35.39
2019-03-26T13:44:35.193Z,36.12
2019-03-26T13:47:03.696Z,36.41
2019-03-26T13:49:32.130Z,36.55
2019-03-26T13:52:00.559Z,36.87
2019-03-26T13:54:28.951Z,37.00
2019-03-26T13:56:57.429Z,36.50
2019-03-26T13:59:25.845Z,35.73
2019-03-26T14:01:54.246Z,35.33
2019-03-26T14:04:22.673Z,35.41
2019-03-26T14:06:52.543Z,35.57
2019-03-26T14:09:21.342Z,33.93
2019-03-26T14:11:49.836Z,33.12
2019-03-26T14:14:18.262Z,33.19
2019-03-26T14:16:46.676Z,32.51
2019-03-26T14:19:15.148Z,31.72
2019-03-26T14:21:43.542Z,31.87
2019-03-26T14:24:13.476Z,32.72
2019-03-26T14:26:42.024Z,33.17
2019-03-26T14:29:10.639Z,33.08
2019-03-26T14:31:39.041Z,33.95
2019-03-26T14:34:07.486Z,33.17
2019-03-26T14:36:35.959Z,34.31
2019-03-26T14:39:07.452Z,34.56
2019-03-26T14:41:35.869Z,35.01
2019-03-26T14:44:04.357Z,34.43
2019-03-26T14:46:32.791Z,33.92
2019-03-26T14:49:01.264Z,34.09
2019-03-26T14:51:29.700Z,34.63
2019-03-26T14:53:58.132Z,34.96
2019-03-26T14:56:26.580Z,35.34
2019-03-26T14:58:54.980Z,36.39
2019-03-26T15:01:23.488Z,36.64
2019-03-26T15:03:51.934Z,36.79
2019-03-26T15:06:20.406Z,37.42
2019-03-26T15:08:48.970Z,37.22
2019-03-26T15:11:17.399Z,36.86
2019-03-26T15:13:49.236Z,37.07
2019-03-26T15:16:16.076Z,37.08
2019-03-26T15:18:44.569Z,36.42
2019-03-26T15:21:13.071Z,36.90
2019-03-26T15:23:41.498Z,37.33
2019-03-26T15:26:10.010Z,37.72
2019-03-26T15:28:38.434Z,38.25
2019-03-26T15:31:06.971Z,39.54
2019-03-26T15:33:35.437Z,40.64
2019-03-26T15:36:04.004Z,40.55
2019-03-26T15:38:32.463Z,41.26
2019-03-26T15:41:20.950Z,41.46
2019-03-26T15:43:39.794Z,41.81
2019-03-26T15:46:11.494Z,42.53
2019-03-26T15:48:39.918Z,41.85
2019-03-26T15:51:08.409Z,42.25
2019-03-26T15:53:36.852Z,41.91
2019-03-26T15:56:05.408Z,42.96
2019-03-26T15:58:33.828Z,43.08
2019-03-26T16:01:02.336Z,43.29
2019-03-26T16:03:30.794Z,43.33
2019-03-26T16:05:59.194Z,43.42
2019-03-26T16:08:27.683Z,43.34
2019-03-26T16:10:56.182Z,43.77
2019-03-26T16:13:24.612Z,43.72
2019-03-26T16:15:53.042Z,44.36
2019-03-26T16:18:21.474Z,45.06
2019-03-26T16:20:49.882Z,45.32
2019-03-26T16:23:18.331Z,46.28
2019-03-26T16:25:46.727Z,46.75
2019-03-26T16:28:15.160Z,47.36
2019-03-26T16:30:43.559Z,47.32
2019-03-26T16:33:12.077Z,47.46
2019-03-26T16:35:40.677Z,48.71
2019-03-26T16:38:09.196Z,47.95
2019-03-26T16:40:38.819Z,47.33
2019-03-26T16:43:07.213Z,47.33
2019-03-26T16:45:35.622Z,47.76
2019-03-26T16:48:04.115Z,48.07
2019-03-26T16:50:32.650Z,48.07
2019-03-26T16:53:01.057Z,48.18
2019-03-26T16:55:29.463Z,47.94
2019-03-26T16:57:58.223Z,48.22
2019-03-26T17:00:31.278Z,48.78
2019-03-26T17:03:00.429Z,48.78
2019-03-26T17:05:28.962Z,49.55
2019-03-26T17:07:57.496Z,49.66
2019-03-26T17:10:25.898Z,49.72
2019-03-26T17:12:54.327Z,49.96
2019-03-26T17:15:22.820Z,50.60
2019-03-26T17:17:51.234Z,56.41
2019-03-26T17:20:19.681Z,55.40
2019-03-26T17:22:48.088Z,55.40
2019-03-26T17:25:16.509Z,57.73
2019-03-26T17:27:44.997Z,55.42
2019-03-26T17:30:13.673Z,56.05
2019-03-26T17:32:42.079Z,56.05
2019-03-26T17:35:10.646Z,57.60
2019-03-26T17:37:39.055Z,55.03
2019-03-26T17:40:07.621Z,55.34
2019-03-26T17:42:36.094Z,57.16
2019-03-26T17:45:06.454Z,56.07
2019-03-26T17:47:35.038Z,56.07
2019-03-26T17:50:04.613Z,55.44
2019-03-26T17:52:33.021Z,55.64
2019-03-26T17:55:01.437Z,55.29
2019-03-26T17:57:29.865Z,55.93
2019-03-26T17:59:58.349Z,55.99
2019-03-26T18:02:26.860Z,56.09
2019-03-26T18:04:55.803Z,55.62
2019-03-26T18:07:24.295Z,55.68
2019-03-26T18:09:52.713Z,56.19
2019-03-26T18:12:30.637Z,56.78
2019-03-26T18:14:51.327Z,57.16
2019-03-26T18:17:19.737Z,57.92
2019-03-26T18:19:48.138Z,57.43
2019-03-26T18:22:16.585Z,60.06
2019-03-26T18:24:44.978Z,60.96
2019-03-26T18:27:13.393Z,61.90
2019-03-26T18:29:41.822Z,63.04
2019-03-26T18:32:10.249Z,63.40
2019-03-26T18:34:38.661Z,64.24
2019-03-26T18:37:07.146Z,64.42
2019-03-26T18:39:35.593Z,64.74
2019-03-26T18:42:04.141Z,65.12
2019-03-26T18:44:32.591Z,65.22
2019-03-26T18:47:01.051Z,65.88
2019-03-26T18:49:29.469Z,66.57
2019-03-26T18:51:57.996Z,67.27
2019-03-26T18:54:26.410Z,67.14
2019-03-26T18:56:54.836Z,66.88
2019-03-26T18:59:23.303Z,67.14
2019-03-26T19:01:51.732Z,67.36
2019-03-26T19:04:20.176Z,67.16
2019-03-26T19:06:48.639Z,67.24
2019-03-26T19:09:17.040Z,68.56
2019-03-26T19:11:45.473Z,68.22
2019-03-26T19:14:13.859Z,67.44
2019-03-26T19:16:42.324Z,66.75
2019-03-26T19:19:10.763Z,67.02
2019-03-26T19:21:39.233Z,67.50
2019-03-26T19:24:07.657Z,67.57
2019-03-26T19:26:36.086Z,68.39
2019-03-26T19:29:04.597Z,69.22
2019-03-26T19:31:32.996Z,69.13
2019-03-26T19:34:01.414Z,68.92
2019-03-26T19:36:29.865Z,68.77
2019-03-26T19:38:58.419Z,68.98
2019-03-26T19:41:26.943Z,69.14
2019-03-26T19:43:55.416Z,69.49
2019-03-26T19:46:23.909Z,69.31
2019-03-26T19:48:52.299Z,70.07
2019-03-26T19:51:20.751Z,70.29
2019-03-26T19:53:49.177Z,69.29
2019-03-26T19:56:17.695Z,70.16
2019-03-26T19:58:46.146Z,70.34
2019-03-26T20:01:14.646Z,70.40
2019-03-26T20:03:43.153Z,70.60
2019-03-26T20:06:13.733Z,70.63
2019-03-26T20:08:41.876Z,69.46
2019-03-26T20:11:10.390Z,69.98
2019-03-26T20:13:38.917Z,71.28
2019-03-26T20:16:07.440Z,72.35
2019-03-26T20:18:35.853Z,72.67
2019-03-26T20:21:04.591Z,73.07
2019-03-26T20:23:33.156Z,73.58
2019-03-26T20:26:01.625Z,73.22
2019-03-26T20:28:30.020Z,73.01
2019-03-26T20:30:58.490Z,72.46
2019-03-26T20:33:26.915Z,73.23
2019-03-26T20:35:55.327Z,73.91
2019-03-26T20:38:23.747Z,72.55
2019-03-26T20:40:52.408Z,72.44
2019-03-26T20:43:20.839Z,72.25
2019-03-26T20:45:49.290Z,71.95
2019-03-26T20:48:17.931Z,72.09
2019-03-26T20:50:46.444Z,72.02
2019-03-26T20:53:14.961Z,72.06
2019-03-26T20:55:53.860Z,71.90
2019-03-26T20:58:13.705Z,72.18
2019-03-26T21:03:35.031Z,72.02
2019-03-26T21:06:03.615Z,72.17
2019-03-26T21:08:32.092Z,72.35
2019-03-26T21:11:00.657Z,72.24
2019-03-26T21:13:29.124Z,72.36
2019-03-26T21:15:57.825Z,72.22
2019-03-26T21:18:26.284Z,72.62
2019-03-26T21:20:54.776Z,72.73
2019-03-26T21:23:23.374Z,73.40
2019-03-26T21:25:51.849Z,73.76
2019-03-26T21:28:20.320Z,73.76
2019-03-26T21:30:48.870Z,74.02
2019-03-26T21:33:17.296Z,74.35
2019-03-26T21:35:45.810Z,74.27
2019-03-26T21:38:14.292Z,74.04
2019-03-26T21:40:42.766Z,74.13
2019-03-26T21:43:11.251Z,74.21
2019-03-26T21:45:40.321Z,74.87
2019-03-26T21:48:09.096Z,75.05
2019-03-26T21:50:37.681Z,74.99
2019-03-26T21:53:06.236Z,75.23
2019-03-26T21:55:34.796Z,75.46
2019-03-26T21:58:03.555Z,76.05
2019-03-26T22:00:31.995Z,76.74
2019-03-26T22:03:00.533Z,77.31
2019-03-26T22:05:28.966Z,78.07
2019-03-26T22:07:57.454Z,78.39
2019-03-26T22:10:25.916Z,77.95
2019-03-26T22:12:54.331Z,78.36
2019-03-26T22:15:22.823Z,78.03
2019-03-26T22:17:51.254Z,78.11
2019-03-26T22:20:19.826Z,77.75
2019-03-26T22:22:48.278Z,77.37
2019-03-26T22:25:16.853Z,78.44
2019-03-26T22:27:45.293Z,78.73
2019-03-26T22:30:14.451Z,78.65
2019-03-26T22:32:42.868Z,78.46
2019-03-26T22:35:11.742Z,78.35
2019-03-26T22:37:40.229Z,77.92
2019-03-26T22:40:09.297Z,76.68
2019-03-26T22:42:37.782Z,76.39
2019-03-26T22:45:08.868Z,75.80
2019-03-26T22:47:38.755Z,75.30
2019-03-26T22:50:08.601Z,75.41
2019-03-26T22:52:37.157Z,75.21
2019-03-26T22:55:07.794Z,75.19
2019-03-26T22:57:36.383Z,75.03
2019-03-26T23:00:08.113Z,75.05
2019-03-26T23:02:36.620Z,75.01
2019-03-26T23:05:06.914Z,74.80
2019-03-26T23:07:35.399Z,74.22
2019-03-26T23:10:04.855Z,74.10
2019-03-26T23:12:33.278Z,74.00
2019-03-26T23:15:01.879Z,73.98
2019-03-26T23:17:30.359Z,73.90
2019-03-26T23:19:58.772Z,74.29
2019-03-26T23:22:27.188Z,74.53
2019-03-26T23:24:55.601Z,74.76
2019-03-26T23:27:24.016Z,74.77
2019-03-26T23:29:52.414Z,74.97
2019-03-26T23:32:20.849Z,75.36
2019-03-26T23:34:49.318Z,75.75
2019-03-26T23:37:17.737Z,75.83
2019-03-26T23:39:46.149Z,75.93
2019-03-26T23:42:14.561Z,75.95
2019-03-26T23:44:43.058Z,75.95
2019-03-26T23:47:11.464Z,75.95
2019-03-26T23:49:39.900Z,75.71
2019-03-26T23:52:08.403Z,75.62
2019-03-26T23:54:36.790Z,76.43
2019-03-26T23:57:05.184Z,76.93
2019-03-26T23:59:33.606Z,77.28
